Time;durP1;ratioP1;P1;durP2;ratioP2;P2;SDS_P1;SDS_P2;PMS_P1;PMS_P2;Temp;Humidity;BMP_temperature;BMP_pressure;BME280_temperature;BME280_humidity;BME280_pressure;Samples;Min_cycle;Max_cycle;Signal;HPM_P1;HPM_P2
2022/11/22 00:00:41;;;;;;;36.88;21.77;;;;;;;;;;5049817;28;20051;-67
2022/11/22 00:03:08;;;;;;;35.53;21.05;;;;;;;;;;5049714;28;20079;-68
2022/11/22 00:05:34;;;;;;;36.03;22.02;;;;;;;;;;5044927;28;20048;-67
2022/11/22 00:08:00;;;;;;;41.63;21.20;;;;;;;;;;5048041;28;20082;-66
2022/11/22 00:10:26;;;;;;;34.38;21.52;;;;;;;;;;5047449;28;20074;-66
2022/11/22 00:12:53;;;;;;;52.45;22.80;;;;;;;;;;5045597;28;20166;-67
2022/11/22 00:15:19;;;;;;;38.63;22.38;;;;;;;;;;5049657;28;20653;-67
2022/11/22 00:17:45;;;;;;;40.63;20.92;;;;;;;;;;5045637;28;22371;-67
2022/11/22 00:20:12;;;;;;;36.30;21.15;;;;;;;;;;5047655;28;20076;-67
2022/11/22 00:22:38;;;;;;;35.15;20.30;;;;;;;;;;5050974;28;20056;-67
2022/11/22 00:25:04;;;;;;;44.25;22.77;;;;;;;;;;5050597;28;20041;-67
2022/11/22 00:27:30;;;;;;;42.42;23.52;;;;;;;;;;5049262;28;20098;-67
2022/11/22 00:29:57;;;;;;;47.88;26.27;;;;;;;;;;5047576;28;20052;-67
2022/11/22 00:32:23;;;;;;;42.60;22.42;;;;;;;;;;5051856;28;20496;-68
2022/11/22 00:34:49;;;;;;;40.42;21.05;;;;;;;;;;5053294;28;20808;-67
2022/11/22 00:37:15;;;;;;;43.38;22.42;;;;;;;;;;5048552;28;21130;-67
2022/11/22 00:39:41;;;;;;;44.55;21.35;;;;;;;;;;5048359;28;20033;-67
2022/11/22 00:42:07;;;;;;;42.28;22.55;;;;;;;;;;5050111;28;20070;-67
2022/11/22 00:44:33;;;;;;;52.30;25.20;;;;;;;;;;5047584;28;20759;-67
2022/11/22 00:46:59;;;;;;;51.40;25.80;;;;;;;;;;5049782;28;20343;-67
2022/11/22 00:49:25;;;;;;;40.42;19.95;;;;;;;;;;5042469;28;20059;-67
2022/11/22 00:51:51;;;;;;;48.55;24.08;;;;;;;;;;5046349;28;20176;-67
2022/11/22 00:54:17;;;;;;;48.85;23.13;;;;;;;;;;5049585;28;20045;-67
2022/11/22 00:56:43;;;;;;;46.28;22.08;;;;;;;;;;5049148;28;20055;-67
2022/11/22 00:59:10;;;;;;;54.80;26.02;;;;;;;;;;5042059;28;20048;-67
2022/11/22 01:01:36;;;;;;;56.85;27.65;;;;;;;;;;5048174;28;20044;-69
2022/11/22 01:04:02;;;;;;;53.30;25.85;;;;;;;;;;5040701;28;21727;-68
2022/11/22 01:06:28;;;;;;;52.90;25.27;;;;;;;;;;5041932;28;20187;-69
2022/11/22 01:08:54;;;;;;;63.67;29.60;;;;;;;;;;5034971;28;20044;-69
2022/11/22 01:11:20;;;;;;;51.00;24.67;;;;;;;;;;5041364;28;20048;-69
2022/11/22 01:13:46;;;;;;;56.78;24.42;;;;;;;;;;5040683;28;20051;-69
2022/11/22 01:16:13;;;;;;;57.70;25.67;;;;;;;;;;5055171;28;20758;-68
2022/11/22 01:18:39;;;;;;;60.58;28.52;;;;;;;;;;5049399;28;20072;-66
2022/11/22 01:21:05;;;;;;;57.88;27.40;;;;;;;;;;5050423;28;20074;-67
2022/11/22 01:23:32;;;;;;;59.83;30.08;;;;;;;;;;5046077;28;20048;-67
2022/11/22 01:25:58;;;;;;;57.10;28.40;;;;;;;;;;5047021;28;20068;-67
2022/11/22 01:28:24;;;;;;;60.63;32.00;;;;;;;;;;5050999;28;20078;-67
2022/11/22 01:30:51;;;;;;;59.83;30.65;;;;;;;;;;5046185;28;20083;-67
2022/11/22 01:33:17;;;;;;;60.60;30.23;;;;;;;;;;5043316;28;20048;-67
2022/11/22 01:35:43;;;;;;;49.95;25.85;;;;;;;;;;5047051;28;20064;-67
2022/11/22 01:38:09;;;;;;;53.13;30.17;;;;;;;;;;5042875;28;20824;-67
2022/11/22 01:40:35;;;;;;;47.78;28.13;;;;;;;;;;5046027;28;20591;-67
2022/11/22 01:43:03;;;;;;;56.05;31.05;;;;;;;;;;5044501;28;20719;-67
2022/11/22 01:45:29;;;;;;;57.95;30.65;;;;;;;;;;5043135;28;20075;-67
2022/11/22 01:48:15;;;;;;;50.83;28.90;;;;;;;;;;5047351;28;20056;-66
2022/11/22 01:50:43;;;;;;;47.75;29.23;;;;;;;;;;5042992;28;20584;-67
2022/11/22 01:53:12;;;;;;;49.70;29.73;;;;;;;;;;5044224;28;20040;-66
2022/11/22 01:55:39;;;;;;;44.42;26.75;;;;;;;;;;5046099;28;20040;-67
2022/11/22 01:58:05;;;;;;;56.58;30.63;;;;;;;;;;5042588;28;20566;-66
2022/11/22 02:00:31;;;;;;;53.00;30.48;;;;;;;;;;5048538;28;20115;-66
2022/11/22 02:02:59;;;;;;;56.97;30.55;;;;;;;;;;5045455;28;20045;-67
2022/11/22 02:05:26;;;;;;;53.00;29.70;;;;;;;;;;5047205;28;20636;-67
2022/11/22 02:08:00;;;;;;;44.83;26.23;;;;;;;;;;5046868;28;20044;-67
2022/11/22 02:10:27;;;;;;;49.85;27.75;;;;;;;;;;5041377;28;20573;-67
2022/11/22 02:12:55;;;;;;;51.90;29.17;;;;;;;;;;5044934;28;20052;-68
2022/11/22 02:15:21;;;;;;;51.08;28.77;;;;;;;;;;5044189;28;20048;-67
2022/11/22 02:17:47;;;;;;;46.15;27.10;;;;;;;;;;5045986;28;20044;-67
2022/11/22 02:20:15;;;;;;;54.80;30.27;;;;;;;;;;5041065;28;20049;-67
2022/11/22 02:22:51;;;;;;;52.85;29.25;;;;;;;;;;5046842;28;20054;-67
2022/11/22 02:25:17;;;;;;;57.33;31.52;;;;;;;;;;5046486;28;20042;-66
2022/11/22 02:27:43;;;;;;;49.15;26.33;;;;;;;;;;5044738;28;20170;-66
2022/11/22 02:30:09;;;;;;;51.47;28.00;;;;;;;;;;5023734;28;20052;-66
2022/11/22 02:32:35;;;;;;;42.63;24.33;;;;;;;;;;5043238;28;20048;-69
2022/11/22 02:35:01;;;;;;;55.05;30.25;;;;;;;;;;5045531;28;20036;-69
2022/11/22 02:37:30;;;;;;;50.28;27.10;;;;;;;;;;5047984;28;20108;-68
2022/11/22 02:39:58;;;;;;;52.38;26.90;;;;;;;;;;5052836;28;20052;-68
2022/11/22 02:42:25;;;;;;;48.20;27.13;;;;;;;;;;5054296;28;20102;-67
2022/11/22 02:44:51;;;;;;;53.00;27.55;;;;;;;;;;5055584;28;20052;-66
2022/11/22 02:47:17;;;;;;;54.03;29.33;;;;;;;;;;5056045;28;20036;-67
2022/11/22 02:49:43;;;;;;;56.47;30.60;;;;;;;;;;5054114;28;20072;-68
2022/11/22 02:52:09;;;;;;;49.97;27.92;;;;;;;;;;5053916;28;21096;-68
2022/11/22 02:54:35;;;;;;;53.78;29.77;;;;;;;;;;5053388;28;20052;-67
2022/11/22 02:57:02;;;;;;;52.63;27.60;;;;;;;;;;5052562;28;20041;-68
2022/11/22 02:59:28;;;;;;;59.17;29.65;;;;;;;;;;5053209;28;20399;-67
2022/11/22 03:01:54;;;;;;;59.28;29.25;;;;;;;;;;5051670;28;20063;-67
2022/11/22 03:04:23;;;;;;;57.05;30.48;;;;;;;;;;5051912;28;20044;-67
2022/11/22 03:06:56;;;;;;;53.28;26.70;;;;;;;;;;5042080;28;20041;-67
2022/11/22 03:09:23;;;;;;;55.85;27.88;;;;;;;;;;5043513;28;20040;-67
2022/11/22 03:11:49;;;;;;;44.03;24.48;;;;;;;;;;5043306;28;20052;-68
2022/11/22 03:14:16;;;;;;;54.15;26.88;;;;;;;;;;5051614;28;20584;-67
2022/11/22 03:16:42;;;;;;;52.60;27.27;;;;;;;;;;5046262;28;20074;-67
2022/11/22 03:19:08;;;;;;;48.75;24.85;;;;;;;;;;5042940;28;22244;-68
2022/11/22 03:21:34;;;;;;;53.35;25.58;;;;;;;;;;5045848;28;20056;-67
2022/11/22 03:24:00;;;;;;;52.45;26.63;;;;;;;;;;5039387;28;20036;-68
2022/11/22 03:26:27;;;;;;;46.92;23.85;;;;;;;;;;5043927;28;20033;-68
2022/11/22 03:28:53;;;;;;;45.10;24.52;;;;;;;;;;5050592;28;20075;-68
2022/11/22 03:31:19;;;;;;;47.33;24.42;;;;;;;;;;5050795;28;20281;-67
2022/11/22 03:33:45;;;;;;;50.08;24.65;;;;;;;;;;5044492;28;20048;-67
2022/11/22 03:36:11;;;;;;;53.22;27.25;;;;;;;;;;5045235;28;20048;-67
2022/11/22 03:38:37;;;;;;;53.42;27.98;;;;;;;;;;5043954;28;20052;-68
2022/11/22 03:41:03;;;;;;;53.63;25.00;;;;;;;;;;5047478;28;20032;-68
2022/11/22 03:43:29;;;;;;;54.75;26.50;;;;;;;;;;5047613;28;20658;-69
2022/11/22 03:45:55;;;;;;;54.88;27.02;;;;;;;;;;5052146;28;20843;-68
2022/11/22 03:48:21;;;;;;;51.13;26.17;;;;;;;;;;5045528;28;21320;-67
2022/11/22 03:50:47;;;;;;;45.55;23.55;;;;;;;;;;5048780;28;20044;-67
2022/11/22 03:53:13;;;;;;;47.45;24.95;;;;;;;;;;5049605;28;20056;-68
2022/11/22 03:55:40;;;;;;;51.53;25.98;;;;;;;;;;5051901;28;20048;-68
2022/11/22 03:58:06;;;;;;;47.85;25.58;;;;;;;;;;5050492;28;20048;-68
2022/11/22 04:00:32;;;;;;;49.35;24.85;;;;;;;;;;5050346;28;20059;-68
2022/11/22 04:02:58;;;;;;;52.72;28.75;;;;;;;;;;5050654;28;20086;-68
2022/11/22 04:05:25;;;;;;;53.17;27.10;;;;;;;;;;5050244;28;20064;-69
2022/11/22 04:07:57;;;;;;;54.78;26.02;;;;;;;;;;5052255;28;20047;-67
2022/11/22 04:10:24;;;;;;;55.03;28.02;;;;;;;;;;5054386;28;20119;-67
2022/11/22 04:12:50;;;;;;;54.83;27.63;;;;;;;;;;5054558;28;20818;-68
2022/11/22 04:15:16;;;;;;;53.22;26.23;;;;;;;;;;5054504;28;20442;-69
2022/11/22 04:17:46;;;;;;;54.40;27.00;;;;;;;;;;5053989;28;20045;-68
2022/11/22 04:22:57;;;;;;;56.38;25.60;;;;;;;;;;5051446;28;20074;-68
2022/11/22 04:25:24;;;;;;;49.63;25.08;;;;;;;;;;5049333;28;20048;-67
2022/11/22 04:27:50;;;;;;;54.50;27.00;;;;;;;;;;5052961;28;20076;-68
2022/11/22 04:30:16;;;;;;;59.78;28.88;;;;;;;;;;5053255;28;20052;-68
2022/11/22 04:32:45;;;;;;;66.63;32.50;;;;;;;;;;5051265;28;20419;-68
2022/11/22 04:35:15;;;;;;;58.03;27.60;;;;;;;;;;5053175;28;20048;-68
2022/11/22 04:37:42;;;;;;;61.83;29.13;;;;;;;;;;5049497;28;20120;-68
2022/11/22 04:40:08;;;;;;;58.60;29.15;;;;;;;;;;5052712;28;20205;-67
2022/11/22 04:45:19;;;;;;;57.45;27.23;;;;;;;;;;5055402;28;20048;-66
2022/11/22 04:47:57;;;;;;;53.47;26.75;;;;;;;;;;5050747;28;20410;-66
2022/11/22 04:53:09;;;;;;;55.67;28.40;;;;;;;;;;5053262;28;20063;-66
2022/11/22 04:55:35;;;;;;;49.33;28.55;;;;;;;;;;5052385;28;20056;-66
2022/11/22 04:58:01;;;;;;;51.60;29.25;;;;;;;;;;5052031;28;20136;-66
2022/11/22 05:00:28;;;;;;;53.58;27.85;;;;;;;;;;5050190;28;20669;-67
2022/11/22 05:02:55;;;;;;;54.33;28.55;;;;;;;;;;5051828;28;20049;-66
2022/11/22 05:05:21;;;;;;;51.25;28.63;;;;;;;;;;5049282;28;20037;-67
2022/11/22 05:07:47;;;;;;;46.58;25.38;;;;;;;;;;5049353;28;20102;-66
2022/11/22 05:10:13;;;;;;;43.92;24.42;;;;;;;;;;5049800;28;20244;-66
2022/11/22 05:12:40;;;;;;;46.63;26.88;;;;;;;;;;5057216;28;20270;-67
2022/11/22 05:15:07;;;;;;;47.25;26.92;;;;;;;;;;5056785;28;20052;-66
2022/11/22 05:17:33;;;;;;;52.42;29.50;;;;;;;;;;5057541;28;20036;-66
2022/11/22 05:19:59;;;;;;;46.80;28.38;;;;;;;;;;5048010;28;20049;-66
2022/11/22 05:25:32;;;;;;;49.42;27.92;;;;;;;;;;5005788;28;20614;-66
2022/11/22 05:27:58;;;;;;;44.38;25.23;;;;;;;;;;5005951;28;22406;-66
2022/11/22 05:30:24;;;;;;;49.05;27.83;;;;;;;;;;5029177;28;20067;-66
2022/11/22 05:32:51;;;;;;;46.20;25.90;;;;;;;;;;5056297;28;20113;-66
2022/11/22 05:35:17;;;;;;;46.25;26.23;;;;;;;;;;5055165;28;20048;-66
2022/11/22 05:37:43;;;;;;;47.17;26.23;;;;;;;;;;5054525;28;20051;-66
2022/11/22 05:40:09;;;;;;;50.10;28.55;;;;;;;;;;5054953;28;20045;-66
2022/11/22 05:42:35;;;;;;;49.63;27.35;;;;;;;;;;5055321;28;20045;-66
2022/11/22 05:45:01;;;;;;;48.17;26.20;;;;;;;;;;5054786;28;20048;-66
2022/11/22 05:47:27;;;;;;;47.08;26.52;;;;;;;;;;5054996;28;20052;-66
2022/11/22 05:49:53;;;;;;;51.10;26.48;;;;;;;;;;5052033;28;20056;-66
2022/11/22 05:52:19;;;;;;;42.50;26.23;;;;;;;;;;5054564;28;20067;-68
2022/11/22 05:54:45;;;;;;;46.50;27.08;;;;;;;;;;5051835;28;20112;-68
2022/11/22 05:57:11;;;;;;;46.72;27.35;;;;;;;;;;5054917;28;20041;-67
2022/11/22 05:59:37;;;;;;;41.90;26.50;;;;;;;;;;5052694;28;20498;-65
2022/11/22 06:02:03;;;;;;;48.17;26.67;;;;;;;;;;5052820;28;20045;-64
2022/11/22 06:04:30;;;;;;;43.05;26.20;;;;;;;;;;5053880;28;20062;-66
2022/11/22 06:06:56;;;;;;;46.03;26.40;;;;;;;;;;5036582;28;20052;-66
2022/11/22 06:09:22;;;;;;;45.13;26.17;;;;;;;;;;5054777;28;20074;-65
2022/11/22 06:11:48;;;;;;;46.20;27.02;;;;;;;;;;5052501;28;20044;-65
2022/11/22 06:14:14;;;;;;;50.22;25.58;;;;;;;;;;5055160;28;20072;-65
2022/11/22 06:16:40;;;;;;;46.50;25.17;;;;;;;;;;5058161;28;20044;-66
2022/11/22 06:19:06;;;;;;;47.47;26.95;;;;;;;;;;5057361;28;20059;-66
2022/11/22 06:21:32;;;;;;;50.00;26.98;;;;;;;;;;5058455;28;20044;-66
2022/11/22 06:23:58;;;;;;;47.50;26.52;;;;;;;;;;5057670;28;20074;-66
2022/11/22 06:26:25;;;;;;;49.13;27.60;;;;;;;;;;5058397;28;20060;-67
2022/11/22 06:28:51;;;;;;;47.45;25.38;;;;;;;;;;5057992;28;20048;-66
2022/11/22 06:31:17;;;;;;;43.97;25.20;;;;;;;;;;5060374;28;20075;-65
2022/11/22 06:33:43;;;;;;;42.38;25.77;;;;;;;;;;5061238;28;20041;-66
2022/11/22 06:36:16;;;;;;;50.00;27.48;;;;;;;;;;5061199;28;20036;-66
2022/11/22 06:38:43;;;;;;;42.70;24.67;;;;;;;;;;5061006;28;20078;-67
2022/11/22 06:41:11;;;;;;;47.35;26.80;;;;;;;;;;5059894;28;20064;-66
2022/11/22 06:43:38;;;;;;;48.22;26.52;;;;;;;;;;5060785;28;20036;-66
2022/11/22 06:46:05;;;;;;;43.00;25.98;;;;;;;;;;5058971;28;20049;-68
2022/11/22 06:48:35;;;;;;;44.88;26.52;;;;;;;;;;5057294;28;20104;-68
2022/11/22 06:51:21;;;;;;;46.38;25.55;;;;;;;;;;5058106;28;20749;-66
2022/11/22 06:53:47;;;;;;;45.17;24.85;;;;;;;;;;5054847;28;20052;-66
2022/11/22 06:56:14;;;;;;;49.40;28.23;;;;;;;;;;5057373;28;20049;-66
2022/11/22 06:58:41;;;;;;;47.85;26.55;;;;;;;;;;5057392;28;20221;-66
2022/11/22 07:01:11;;;;;;;48.10;27.23;;;;;;;;;;5056647;28;20059;-67
2022/11/22 07:03:38;;;;;;;47.08;26.92;;;;;;;;;;5058221;28;20411;-66
2022/11/22 07:06:05;;;;;;;54.88;28.27;;;;;;;;;;5057420;28;20051;-66
2022/11/22 07:08:31;;;;;;;48.33;27.30;;;;;;;;;;5058285;28;20103;-66
2022/11/22 07:11:08;;;;;;;45.42;26.83;;;;;;;;;;5058928;28;20052;-66
2022/11/22 07:13:35;;;;;;;47.03;27.67;;;;;;;;;;5057999;28;20040;-67
2022/11/22 07:16:01;;;;;;;49.08;28.45;;;;;;;;;;5058299;28;20055;-66
2022/11/22 07:18:28;;;;;;;48.03;28.40;;;;;;;;;;5057613;28;20078;-66
2022/11/22 07:20:59;;;;;;;46.85;27.88;;;;;;;;;;5059911;28;20217;-66
2022/11/22 07:23:25;;;;;;;49.28;29.25;;;;;;;;;;5059125;28;20049;-66
2022/11/22 07:25:51;;;;;;;47.33;28.52;;;;;;;;;;5058272;28;20048;-66
2022/11/22 07:28:17;;;;;;;52.45;29.40;;;;;;;;;;5055285;28;20050;-66
2022/11/22 07:30:43;;;;;;;52.65;28.05;;;;;;;;;;5059739;28;20236;-66
2022/11/22 07:33:09;;;;;;;51.75;28.63;;;;;;;;;;5055359;28;20041;-65
2022/11/22 07:35:36;;;;;;;57.92;29.33;;;;;;;;;;5055570;28;20138;-65
2022/11/22 07:38:02;;;;;;;52.78;28.65;;;;;;;;;;5057921;28;20116;-67
2022/11/22 07:40:29;;;;;;;52.25;29.33;;;;;;;;;;5057596;28;20032;-68
2022/11/22 07:42:55;;;;;;;52.15;28.27;;;;;;;;;;5058467;28;20125;-66
2022/11/22 07:45:21;;;;;;;52.75;28.77;;;;;;;;;;5055135;28;20045;-66
2022/11/22 07:47:47;;;;;;;51.65;30.05;;;;;;;;;;5057288;28;20060;-66
2022/11/22 07:50:13;;;;;;;49.42;30.92;;;;;;;;;;5057524;28;20052;-66
2022/11/22 07:52:39;;;;;;;51.50;31.02;;;;;;;;;;5057311;28;20072;-66
2022/11/22 07:55:05;;;;;;;51.85;29.00;;;;;;;;;;5057891;28;20036;-64
2022/11/22 07:57:32;;;;;;;47.53;27.80;;;;;;;;;;5057847;28;20052;-66
2022/11/22 07:59:58;;;;;;;46.63;27.88;;;;;;;;;;5058887;28;20052;-66
2022/11/22 08:02:24;;;;;;;51.42;27.42;;;;;;;;;;5058865;28;20591;-66
2022/11/22 08:04:50;;;;;;;45.30;27.13;;;;;;;;;;5058536;28;20744;-65
2022/11/22 08:07:16;;;;;;;54.78;28.90;;;;;;;;;;5056634;28;20772;-67
2022/11/22 08:09:43;;;;;;;47.00;27.38;;;;;;;;;;5057334;28;20128;-66
2022/11/22 08:12:09;;;;;;;49.10;28.00;;;;;;;;;;5056258;28;20139;-66
2022/11/22 08:14:35;;;;;;;50.75;28.88;;;;;;;;;;5058829;28;22122;-66
2022/11/22 08:17:01;;;;;;;51.15;28.95;;;;;;;;;;5058188;28;20045;-66
2022/11/22 08:19:27;;;;;;;50.70;27.77;;;;;;;;;;5058383;28;20068;-65
2022/11/22 08:21:53;;;;;;;44.55;26.83;;;;;;;;;;5058103;28;20032;-66
2022/11/22 08:24:20;;;;;;;48.97;27.60;;;;;;;;;;5057913;28;20037;-66
2022/11/22 08:26:46;;;;;;;46.78;26.20;;;;;;;;;;5057760;28;20792;-66
2022/11/22 08:29:14;;;;;;;47.47;26.90;;;;;;;;;;5057169;28;20066;-66
2022/11/22 08:31:40;;;;;;;54.50;28.15;;;;;;;;;;5057869;28;20060;-66
2022/11/22 08:34:06;;;;;;;44.20;26.05;;;;;;;;;;5058165;28;20044;-65
2022/11/22 08:36:32;;;;;;;40.92;25.85;;;;;;;;;;5056902;28;20040;-66
2022/11/22 08:38:58;;;;;;;51.70;26.25;;;;;;;;;;5057807;28;20056;-66
2022/11/22 08:41:24;;;;;;;41.40;25.52;;;;;;;;;;5055541;28;20662;-65
2022/11/22 08:43:51;;;;;;;44.38;25.58;;;;;;;;;;5058544;28;20067;-66
2022/11/22 08:46:17;;;;;;;46.22;24.88;;;;;;;;;;5056047;28;20068;-65
2022/11/22 08:48:43;;;;;;;43.45;24.77;;;;;;;;;;5057237;28;20060;-66
2022/11/22 08:51:10;;;;;;;42.00;25.13;;;;;;;;;;5057233;28;20056;-65
2022/11/22 08:53:38;;;;;;;53.50;25.38;;;;;;;;;;5057100;28;20159;-65
2022/11/22 08:56:05;;;;;;;41.60;24.30;;;;;;;;;;5057194;28;20483;-66
2022/11/22 08:58:32;;;;;;;44.88;23.15;;;;;;;;;;5056187;28;20062;-66
2022/11/22 09:01:05;;;;;;;37.63;20.67;;;;;;;;;;5056098;28;20094;-65
2022/11/22 09:03:31;;;;;;;37.83;21.23;;;;;;;;;;5057050;28;20532;-66
2022/11/22 09:06:01;;;;;;;32.20;20.67;;;;;;;;;;5057216;28;20083;-68
2022/11/22 09:08:27;;;;;;;33.13;18.73;;;;;;;;;;5057568;28;20048;-66
2022/11/22 09:10:53;;;;;;;34.65;19.48;;;;;;;;;;5055258;28;20047;-66
2022/11/22 09:13:19;;;;;;;35.60;20.13;;;;;;;;;;5056946;28;20043;-66
2022/11/22 09:15:45;;;;;;;34.60;19.27;;;;;;;;;;5057240;28;20048;-66
2022/11/22 09:18:11;;;;;;;31.45;19.23;;;;;;;;;;5057920;28;20058;-66
2022/11/22 09:20:37;;;;;;;35.78;17.20;;;;;;;;;;5057294;28;20051;-66
2022/11/22 09:23:03;;;;;;;26.13;17.00;;;;;;;;;;5056497;28;20048;-66
2022/11/22 09:25:30;;;;;;;24.67;17.15;;;;;;;;;;5056746;28;20048;-66
2022/11/22 09:28:01;;;;;;;25.55;16.13;;;;;;;;;;5055304;28;20041;-66
2022/11/22 09:30:28;;;;;;;26.92;14.50;;;;;;;;;;5056240;28;20052;-65
2022/11/22 09:32:54;;;;;;;34.97;14.90;;;;;;;;;;5055450;28;20037;-66
2022/11/22 09:35:20;;;;;;;26.75;15.00;;;;;;;;;;5056543;28;20044;-65
2022/11/22 09:37:46;;;;;;;28.50;14.77;;;;;;;;;;5052933;28;20049;-66
2022/11/22 09:40:12;;;;;;;28.75;15.52;;;;;;;;;;5055329;28;20111;-66
2022/11/22 09:43:05;;;;;;;25.83;14.30;;;;;;;;;;5055326;28;20045;-65
2022/11/22 09:45:35;;;;;;;28.85;14.65;;;;;;;;;;5056383;28;20558;-66
2022/11/22 09:48:07;;;;;;;28.73;13.57;;;;;;;;;;5056853;28;20041;-66
2022/11/22 09:50:39;;;;;;;27.83;13.20;;;;;;;;;;5058780;28;20052;-65
2022/11/22 09:53:12;;;;;;;18.48;9.35;;;;;;;;;;5060580;28;20063;-66
2022/11/22 09:55:40;;;;;;;22.20;8.50;;;;;;;;;;5058787;28;20105;-66
2022/11/22 09:58:10;;;;;;;21.30;7.70;;;;;;;;;;5058023;28;20131;-66
2022/11/22 10:00:36;;;;;;;15.70;5.97;;;;;;;;;;5059023;28;20072;-65
2022/11/22 10:03:08;;;;;;;18.15;6.07;;;;;;;;;;5060497;28;20062;-65
2022/11/22 10:05:49;;;;;;;22.65;6.10;;;;;;;;;;5060471;28;20045;-66
2022/11/22 10:08:21;;;;;;;28.52;6.65;;;;;;;;;;5058748;28;20153;-65
2022/11/22 10:10:51;;;;;;;13.07;5.30;;;;;;;;;;5055183;28;20045;-65
2022/11/22 10:13:44;;;;;;;9.20;3.28;;;;;;;;;;5058225;28;20036;-65
2022/11/22 10:16:29;;;;;;;15.32;3.97;;;;;;;;;;5057680;28;20408;-66
2022/11/22 10:19:11;;;;;;;16.60;5.00;;;;;;;;;;5055100;28;20041;-65
2022/11/22 10:21:37;;;;;;;16.60;3.92;;;;;;;;;;5059862;28;20052;-66
2022/11/22 10:24:04;;;;;;;10.35;3.13;;;;;;;;;;5059230;28;20102;-66
2022/11/22 10:26:31;;;;;;;20.00;4.28;;;;;;;;;;5057238;28;20051;-65
2022/11/22 10:29:16;;;;;;;12.20;3.28;;;;;;;;;;5040257;28;20059;-65
2022/11/22 10:31:43;;;;;;;13.18;3.45;;;;;;;;;;5059815;28;20070;-65
2022/11/22 10:34:19;;;;;;;10.18;3.00;;;;;;;;;;5060210;28;20447;-65
2022/11/22 10:36:53;;;;;;;13.15;4.10;;;;;;;;;;5059392;28;20520;-66
2022/11/22 10:39:40;;;;;;;8.48;2.70;;;;;;;;;;5060286;28;20054;-65
2022/11/22 10:42:20;;;;;;;8.25;3.28;;;;;;;;;;5058261;28;20048;-65
2022/11/22 10:45:09;;;;;;;15.25;3.30;;;;;;;;;;5059518;28;20055;-65
2022/11/22 10:47:38;;;;;;;13.48;4.07;;;;;;;;;;5042026;28;20036;-65
2022/11/22 10:50:25;;;;;;;9.60;2.70;;;;;;;;;;5057927;28;20515;-64
2022/11/22 10:53:05;;;;;;;12.13;3.45;;;;;;;;;;5058544;28;20133;-65
2022/11/22 10:55:50;;;;;;;11.30;2.92;;;;;;;;;;5059596;28;20051;-65
2022/11/22 10:58:35;;;;;;;9.73;2.90;;;;;;;;;;5058778;28;20049;-65
2022/11/22 11:01:09;;;;;;;11.50;2.85;;;;;;;;;;5058180;28;20048;-65
2022/11/22 11:03:38;;;;;;;10.88;2.67;;;;;;;;;;5057504;28;20122;-66
2022/11/22 11:06:13;;;;;;;10.90;2.42;;;;;;;;;;5056735;28;20048;-65
2022/11/22 11:08:43;;;;;;;10.40;2.80;;;;;;;;;;5050246;28;20378;-65
2022/11/22 11:11:10;;;;;;;16.30;4.07;;;;;;;;;;5058371;28;20055;-65
2022/11/22 11:13:39;;;;;;;14.55;2.95;;;;;;;;;;5058327;28;20048;-65
2022/11/22 11:16:07;;;;;;;9.52;2.78;;;;;;;;;;5057643;28;20054;-64
2022/11/22 11:18:57;;;;;;;10.65;2.70;;;;;;;;;;5058514;28;20389;-65
2022/11/22 11:21:24;;;;;;;10.63;2.60;;;;;;;;;;5053010;28;20083;-63
2022/11/22 11:23:50;;;;;;;7.45;2.13;;;;;;;;;;5058656;28;20045;-65
2022/11/22 11:26:25;;;;;;;10.48;2.38;;;;;;;;;;5059179;28;20037;-66
2022/11/22 11:29:11;;;;;;;13.20;2.63;;;;;;;;;;5058239;28;20061;-65
2022/11/22 11:31:43;;;;;;;7.70;1.90;;;;;;;;;;5057432;28;20067;-65
2022/11/22 11:34:20;;;;;;;7.30;1.83;;;;;;;;;;5057102;28;20044;-65
2022/11/22 11:36:46;;;;;;;8.07;2.35;;;;;;;;;;5057276;28;20055;-65
2022/11/22 11:39:41;;;;;;;6.32;1.80;;;;;;;;;;5056661;28;20113;-65
2022/11/22 11:42:34;;;;;;;6.43;1.30;;;;;;;;;;5045073;28;20173;-65
2022/11/22 11:45:18;;;;;;;6.70;1.60;;;;;;;;;;5054825;28;20052;-65
2022/11/22 11:47:45;;;;;;;10.30;1.77;;;;;;;;;;5057830;28;20052;-65
2022/11/22 11:50:19;;;;;;;9.10;2.30;;;;;;;;;;5053008;28;20052;-65
2022/11/22 11:52:55;;;;;;;12.05;1.73;;;;;;;;;;5066171;28;20052;-65
2022/11/22 11:55:21;;;;;;;6.00;1.80;;;;;;;;;;5058719;28;21315;-65
2022/11/22 11:57:48;;;;;;;5.38;1.52;;;;;;;;;;5058405;28;20061;-65
2022/11/22 12:00:25;;;;;;;6.20;1.80;;;;;;;;;;5057164;28;20044;-65
2022/11/22 12:02:56;;;;;;;4.38;1.38;;;;;;;;;;5056091;28;20135;-65
2022/11/22 12:05:22;;;;;;;8.82;1.50;;;;;;;;;;5057240;28;20098;-65
2022/11/22 12:07:48;;;;;;;8.13;1.73;;;;;;;;;;5057459;28;20048;-65
2022/11/22 12:10:33;;;;;;;7.03;2.75;;;;;;;;;;5057370;28;20044;-67
2022/11/22 12:13:08;;;;;;;5.95;1.45;;;;;;;;;;5058174;28;20044;-65
2022/11/22 12:15:43;;;;;;;8.57;2.00;;;;;;;;;;5056655;28;20684;-65
2022/11/22 12:18:12;;;;;;;5.95;1.98;;;;;;;;;;5057114;28;20075;-65
2022/11/22 12:20:47;;;;;;;10.38;2.72;;;;;;;;;;5055373;28;20071;-65
2022/11/22 12:23:22;;;;;;;6.85;2.03;;;;;;;;;;5057013;28;20045;-65
2022/11/22 12:25:49;;;;;;;11.02;2.70;;;;;;;;;;5058888;28;20053;-64
2022/11/22 12:28:20;;;;;;;10.55;2.30;;;;;;;;;;5056915;28;20044;-65
2022/11/22 12:30:49;;;;;;;9.63;2.75;;;;;;;;;;5057729;28;20052;-65
2022/11/22 12:33:24;;;;;;;7.07;2.20;;;;;;;;;;5059012;28;21244;-65
2022/11/22 12:35:53;;;;;;;9.35;2.20;;;;;;;;;;5056298;28;20132;-65
2022/11/22 12:38:23;;;;;;;10.07;2.15;;;;;;;;;;5058850;28;20044;-65
2022/11/22 12:40:51;;;;;;;6.78;2.22;;;;;;;;;;5054898;28;20044;-65
2022/11/22 12:43:22;;;;;;;7.53;2.30;;;;;;;;;;5057033;28;20699;-65
2022/11/22 12:45:50;;;;;;;12.38;2.08;;;;;;;;;;5054645;28;20090;-65
2022/11/22 12:48:29;;;;;;;9.07;2.38;;;;;;;;;;5057425;28;20045;-65
2022/11/22 12:50:57;;;;;;;6.45;2.00;;;;;;;;;;5060367;28;20051;-65
2022/11/22 12:53:43;;;;;;;8.70;1.92;;;;;;;;;;5060239;28;20045;-65
2022/11/22 12:56:09;;;;;;;7.45;2.42;;;;;;;;;;5059749;28;20071;-66
2022/11/22 12:58:35;;;;;;;6.07;1.67;;;;;;;;;;5060029;28;20048;-65
2022/11/22 13:01:25;;;;;;;9.38;2.25;;;;;;;;;;5060743;28;20045;-66
2022/11/22 13:04:06;;;;;;;6.65;1.92;;;;;;;;;;5060990;28;22743;-65
2022/11/22 13:06:38;;;;;;;6.82;2.20;;;;;;;;;;5060883;28;20040;-65
2022/11/22 13:09:11;;;;;;;5.72;2.45;;;;;;;;;;5059759;28;20072;-65
2022/11/22 13:11:39;;;;;;;8.10;2.05;;;;;;;;;;5060571;28;20500;-65
2022/11/22 13:14:17;;;;;;;7.57;2.05;;;;;;;;;;5060359;28;20111;-66
2022/11/22 13:16:43;;;;;;;6.43;2.20;;;;;;;;;;5060617;28;20075;-65
2022/11/22 13:19:13;;;;;;;8.35;2.30;;;;;;;;;;5060066;28;22209;-66
2022/11/22 13:21:41;;;;;;;12.90;2.75;;;;;;;;;;5058565;28;20495;-65
2022/11/22 13:24:27;;;;;;;10.90;2.60;;;;;;;;;;5059863;28;20076;-65
2022/11/22 13:27:12;;;;;;;16.13;4.40;;;;;;;;;;5058266;28;20080;-65
2022/11/22 13:29:39;;;;;;;11.95;3.05;;;;;;;;;;5060590;28;20044;-66
2022/11/22 13:32:05;;;;;;;10.40;2.60;;;;;;;;;;5059389;28;20116;-65
2022/11/22 13:34:32;;;;;;;7.55;3.15;;;;;;;;;;5059688;28;20511;-66
2022/11/22 13:37:08;;;;;;;14.82;3.22;;;;;;;;;;5059926;28;20167;-65
2022/11/22 13:39:38;;;;;;;10.50;2.70;;;;;;;;;;5059998;28;20048;-65
2022/11/22 13:42:06;;;;;;;19.35;7.93;;;;;;;;;;5059053;28;20072;-65
2022/11/22 13:44:32;;;;;;;9.20;2.33;;;;;;;;;;5059935;28;20495;-65
2022/11/22 13:46:59;;;;;;;10.40;2.15;;;;;;;;;;5060095;28;20068;-65
2022/11/22 13:49:44;;;;;;;5.40;2.30;;;;;;;;;;5056148;28;20056;-65
2022/11/22 13:52:16;;;;;;;7.72;2.15;;;;;;;;;;5060123;28;20056;-65
2022/11/22 13:54:57;;;;;;;9.40;2.70;;;;;;;;;;5060433;28;20052;-65
2022/11/22 13:57:26;;;;;;;6.05;2.05;;;;;;;;;;5060124;28;20053;-63
2022/11/22 14:00:11;;;;;;;10.70;2.08;;;;;;;;;;5060611;28;20139;-65
2022/11/22 14:02:45;;;;;;;6.82;2.13;;;;;;;;;;5057740;28;20075;-66
2022/11/22 14:05:26;;;;;;;6.18;1.77;;;;;;;;;;5059160;28;20102;-65
2022/11/22 14:07:54;;;;;;;4.97;2.53;;;;;;;;;;5059765;28;20052;-65
2022/11/22 14:10:28;;;;;;;5.05;2.03;;;;;;;;;;5058686;28;20045;-65
2022/11/22 14:13:07;;;;;;;5.22;1.65;;;;;;;;;;5056475;28;20083;-65
2022/11/22 14:15:52;;;;;;;4.55;2.13;;;;;;;;;;5057160;28;20036;-65
2022/11/22 14:18:18;;;;;;;10.50;1.95;;;;;;;;;;5056389;28;20074;-65
2022/11/22 14:20:47;;;;;;;6.10;1.52;;;;;;;;;;5056694;28;20037;-65
2022/11/22 14:23:29;;;;;;;6.65;1.63;;;;;;;;;;5056338;28;20075;-67
2022/11/22 14:25:55;;;;;;;6.38;2.10;;;;;;;;;;5057201;28;20115;-66
2022/11/22 14:28:39;;;;;;;6.32;1.85;;;;;;;;;;5056167;28;20764;-66
2022/11/22 14:31:14;;;;;;;5.32;1.95;;;;;;;;;;5056852;28;20104;-65
2022/11/22 14:33:59;;;;;;;7.05;2.45;;;;;;;;;;5057426;28;20147;-66
2022/11/22 14:36:26;;;;;;;5.93;2.20;;;;;;;;;;5059505;28;20114;-66
2022/11/22 14:38:52;;;;;;;11.15;2.30;;;;;;;;;;5059584;28;20053;-65
2022/11/22 14:41:27;;;;;;;6.82;2.53;;;;;;;;;;5060042;28;20120;-66
2022/11/22 14:43:53;;;;;;;7.53;2.20;;;;;;;;;;5061539;28;20055;-66
2022/11/22 14:46:21;;;;;;;7.10;1.80;;;;;;;;;;5062355;28;20079;-66